Aérodrome :
LOGIN :

S'inscrire | Disclaimer

   EN    FR    IT 

 










Légende :    VFR   VFR Marginal   IFR   IFR Intensif   IFR Très Intensif
Visi : 
Plafond : 
>= 8 km
>= 3000ft
5 à 8 km
1000 à 3000 ft
1500m à 5 km
500 à 1000 ft
800 à 1500m
200 à 500 ft
< 800m
< 200 ft
Symboles :   Orages  Brouillard  Fortes neiges  Fortes précipitations  Vent > 20 kt
SIGMETs :   Divers  Orages  Givrage  Turbulence  Onde Orograph.  Cendres Volcan.






- Altitude de l'aérodrome : 100 ft


EBDT - Schaffen

DERNIER METAR :
  • 230655Z AUTO 20006KT 9999 -DZ /// 19/18 Q1016 BLU

METARs EXPIRÉS :
  • 230625Z AUTO 20006KT 9999 /// 18/18 Q1016 BLU
  • 230555Z AUTO 19006KT 9000 +DZRA /// 18/17 Q1016 BLU
  • 230554Z AUTO 19006KT 2200 RA /// 18/18 Q1016 YLO
  • 230549Z AUTO 20006KT 7000 -RA /// 18/17 Q1016 WHT
  • 230525Z AUTO 19006KT 9999 +DZRA /// 18/17 Q1016 BLU
  • 230518Z AUTO 19006KT 9999 /// 18/17 Q1016 BLU
  • 230505Z AUTO 19005KT 4700 RA /// 18/17 Q1016 GRN
  • 230455Z AUTO 20005KT 9999 +DZRA /// 18/17 Q1016 BLU
  • 230425Z AUTO 20005KT 9999 DZ /// 18/16 Q1016 BLU
  • 230325Z AUTO 20006KT 9999 /// 18/16 Q1016 BLU
  • 230255Z AUTO 20006KT 9999 /// 18/16 Q1016 BLU
  • 230225Z AUTO 19005KT 9999 /// 18/16 Q1016 BLU

TAF TAF EBDT
Valide du 23 à 07h jusqu'au 23 à 16h UTC


230541Z 2307/2316 24010G20KT 9999 SCT007 BKN010
TEMPO 2307/2309 7000 -RA
TEMPO 2307/2316 6000 -SHRA
BECMG 2309/2311 200KT SCT015 BKN020
PROB30
TEMPO 2312/2316 27010G28KT 4000 -TSRA FEW006 BKN015CB BKN018



MET'MAP, la Météo Aéronautique d'un coup d'oeil ! - Copyright ORBIFLY Décembre 2007 - Disclaimer

ORBIFLY MET'MAP TEAM :

Programmation & Développement : Alexandra Zaïnal
Sur une idée originale de : Baudouin d'Aumeries
Soutien technique & logistique : Manuel Goepfert
Assistance : Marc-Olivier Méhu




SOURCES & CREDITS :

   NOAA